EKGR weather

Grenaa Airport
Grenaa, Central Jutland, Denmark

Public forecast

Using degrees Celsius for public forecast. Weather courtesy of forecast.io.

Closest aviation weather report (METAR) to Grenaa Airport

Closest report is Aarhus Airport, 13.4 nm (24.9 km) SW. Retrieved 2020/01/23 07:20 UTC (4 minutes ago):

EKAH 230720Z AUTO 26008KT 9999NDV OVC006/// 05/05 Q1029

Closest aviation forecast (TAF) to Grenaa Airport

Closest forecast is Aarhus Airport, 13.4 nm (24.9 km) SW. Retrieved 2020/01/23 06:00 UTC (1 hour ago):

TAF EKAH 230514Z 2306/2406 26010KT 9999 BKN006 BECMG 2306/2308 1200 BR -RADZ BKN002 TEMPO 2308/2319 4000 BKN005 BECMG 2319/2321 8000 NSW BKN015 TEMPO 2321/2406 BKN008